Time;durP1;ratioP1;P1;durP2;ratioP2;P2;SDS_P1;SDS_P2;PMS_P1;PMS_P2;Temp;Humidity;BMP_temperature;BMP_pressure;BME280_temperature;BME280_humidity;BME280_pressure;Samples;Min_cycle;Max_cycle;Signal;HPM_P1;HPM_P2
2021/12/08 00:01:29;;;;;;;56.00;23.70;;;;;;;-1.66;100.00;99727.41;5073913;28;20044;-78
2021/12/08 00:03:58;;;;;;;54.08;24.65;;;;;;;-1.74;100.00;99728.44;5074181;28;20131;-78
2021/12/08 00:06:26;;;;;;;58.60;24.30;;;;;;;-1.75;100.00;99724.06;5073517;28;20098;-77
2021/12/08 00:09:05;;;;;;;56.47;25.25;;;;;;;-1.80;100.00;99728.53;5074250;28;20037;-77
2021/12/08 00:14:19;;;;;;;56.90;24.85;;;;;;;-1.87;100.00;99724.31;5073828;28;20045;-78
2021/12/08 00:16:49;;;;;;;63.42;26.35;;;;;;;-1.95;100.00;99727.94;5073639;28;20044;-79
2021/12/08 00:19:17;;;;;;;63.20;27.25;;;;;;;-2.15;100.00;99725.69;5073603;28;20474;-79
2021/12/08 00:21:45;;;;;;;59.00;25.25;;;;;;;-2.11;100.00;99736.06;5073773;28;20040;-79
2021/12/08 00:24:13;;;;;;;65.88;26.52;;;;;;;-2.10;100.00;99750.00;5073225;28;20094;-80
2021/12/08 00:26:42;;;;;;;62.03;27.23;;;;;;;-2.07;100.00;99748.19;5073628;28;20102;-79
2021/12/08 00:29:10;;;;;;;68.20;28.95;;;;;;;-2.18;100.00;99736.19;5073471;28;20048;-77
2021/12/08 00:31:40;;;;;;;65.47;28.33;;;;;;;-2.31;100.00;99744.25;5073528;28;20041;-77
2021/12/08 00:34:10;;;;;;;70.75;28.60;;;;;;;-2.29;100.00;99743.34;5073455;28;20091;-77
2021/12/08 00:36:43;;;;;;;64.38;28.08;;;;;;;-2.11;100.00;99751.75;5073780;28;20130;-77
2021/12/08 00:39:12;;;;;;;70.70;28.88;;;;;;;-2.16;100.00;99744.84;5073730;28;20056;-77
2021/12/08 00:41:42;;;;;;;64.97;28.08;;;;;;;-2.10;100.00;99744.75;5073274;28;20048;-76
2021/12/08 00:44:11;;;;;;;64.70;27.95;;;;;;;-2.24;100.00;99759.78;5074084;28;20355;-78
2021/12/08 00:46:40;;;;;;;67.35;28.65;;;;;;;-2.19;100.00;99765.81;5073059;28;20542;-78
2021/12/08 00:49:13;;;;;;;67.53;28.20;;;;;;;-2.26;100.00;99765.03;5073389;28;20045;-78
2021/12/08 00:51:41;;;;;;;64.63;26.98;;;;;;;-2.12;100.00;99757.88;5073501;28;20037;-78
2021/12/08 00:54:09;;;;;;;68.25;28.00;;;;;;;-2.01;100.00;99760.28;5073113;28;20040;-78
2021/12/08 00:56:38;;;;;;;67.05;27.27;;;;;;;-2.05;100.00;99758.59;5072920;28;20123;-78
2021/12/08 00:59:06;;;;;;;56.35;25.52;;;;;;;-2.11;100.00;99763.94;5073379;28;20037;-78
2021/12/08 01:01:34;;;;;;;66.13;27.95;;;;;;;-2.12;100.00;99757.00;5072823;28;20123;-79
2021/12/08 01:04:03;;;;;;;62.15;27.05;;;;;;;-2.20;100.00;99764.09;5072228;28;20490;-79
2021/12/08 01:06:32;;;;;;;64.75;27.92;;;;;;;-2.11;100.00;99759.59;5073149;28;20047;-79
2021/12/08 01:09:00;;;;;;;70.03;28.65;;;;;;;-2.23;100.00;99759.75;5073211;28;20091;-79
2021/12/08 01:11:29;;;;;;;66.10;28.08;;;;;;;-2.27;100.00;99768.56;5073190;28;20086;-79
2021/12/08 01:13:57;;;;;;;68.93;28.10;;;;;;;-2.25;100.00;99765.91;5073199;28;20055;-79
2021/12/08 01:16:26;;;;;;;67.13;28.70;;;;;;;-2.27;100.00;99762.47;5071879;28;20051;-78
2021/12/08 01:18:54;;;;;;;63.75;28.45;;;;;;;-2.26;100.00;99761.56;5074106;28;20044;-77
2021/12/08 01:21:22;;;;;;;65.47;27.25;;;;;;;-2.36;100.00;99764.34;5080154;28;20098;-79
2021/12/08 01:23:52;;;;;;;60.20;27.15;;;;;;;-2.34;100.00;99754.72;5076187;28;20048;-79
2021/12/08 01:26:21;;;;;;;67.03;27.20;;;;;;;-2.26;100.00;99753.72;5073591;28;20040;-79
2021/12/08 01:28:52;;;;;;;62.92;27.42;;;;;;;-2.29;100.00;99751.19;5073292;28;20444;-78
2021/12/08 01:31:20;;;;;;;66.68;28.05;;;;;;;-2.34;100.00;99743.41;5074040;28;20094;-79
2021/12/08 01:33:49;;;;;;;68.13;28.52;;;;;;;-2.23;100.00;99735.38;5077032;28;20040;-78
2021/12/08 01:36:17;;;;;;;65.63;28.80;;;;;;;-2.24;100.00;99731.06;5074671;28;20131;-79
2021/12/08 01:38:46;;;;;;;65.43;27.30;;;;;;;-2.24;100.00;99712.75;5073723;28;20084;-79
2021/12/08 01:41:16;;;;;;;60.17;27.08;;;;;;;-2.26;100.00;99722.38;5072573;28;20086;-78
2021/12/08 01:45:57;;;;;;;66.05;26.42;;;;;;;-2.23;100.00;99720.56;5073482;28;20087;-78
2021/12/08 01:46:31;;;;;;;61.53;26.15;;;;;;;-2.28;100.00;99713.72;5072882;28;20128;-78
2021/12/08 01:49:01;;;;;;;60.65;27.85;;;;;;;-2.37;100.00;99704.28;5072804;28;20098;-78
2021/12/08 01:51:29;;;;;;;65.18;26.20;;;;;;;-2.46;100.00;99702.69;5072201;28;20044;-77
2021/12/08 01:54:01;;;;;;;59.88;26.40;;;;;;;-2.27;100.00;99705.00;5072736;28;20052;-76
2021/12/08 01:56:32;;;;;;;60.70;24.77;;;;;;;-2.38;100.00;99707.78;5072497;28;20047;-77
2021/12/08 01:59:02;;;;;;;55.03;24.73;;;;;;;-2.49;100.00;99713.19;5072446;28;20052;-76
2021/12/08 02:01:33;;;;;;;62.75;26.60;;;;;;;-2.60;100.00;99708.13;5072434;28;20047;-77
2021/12/08 02:04:04;;;;;;;57.45;26.02;;;;;;;-2.57;100.00;99708.97;5072348;28;20132;-75
2021/12/08 02:06:34;;;;;;;60.50;25.38;;;;;;;-2.66;100.00;99713.44;5072491;28;20033;-76
2021/12/08 02:09:06;;;;;;;64.57;26.77;;;;;;;-2.74;100.00;99709.22;5072289;28;20037;-76
2021/12/08 02:11:41;;;;;;;64.65;26.55;;;;;;;-2.82;100.00;99695.41;5072428;28;20041;-76
2021/12/08 02:14:10;;;;;;;61.30;24.47;;;;;;;-2.70;100.00;99695.22;5072581;28;20036;-77
2021/12/08 02:16:38;;;;;;;57.35;25.52;;;;;;;-2.49;100.00;99689.69;5072303;28;20771;-75
2021/12/08 02:19:07;;;;;;;57.20;25.45;;;;;;;-2.64;100.00;99693.38;5072207;28;20492;-75
2021/12/08 02:21:39;;;;;;;60.15;25.27;;;;;;;-2.68;100.00;99694.34;5072122;28;20045;-74
2021/12/08 02:24:10;;;;;;;61.00;25.30;;;;;;;-2.63;100.00;99682.03;5072510;28;20048;-74
2021/12/08 02:26:40;;;;;;;63.70;27.15;;;;;;;-2.62;100.00;99667.25;5071179;28;20082;-75
2021/12/08 02:29:17;;;;;;;62.38;27.05;;;;;;;-2.50;100.00;99672.28;5075064;28;20489;-75
2021/12/08 02:31:52;;;;;;;55.15;24.67;;;;;;;-2.52;100.00;99666.19;5075645;28;20037;-74
2021/12/08 02:48:14;;;;;;;64.28;26.67;;;;;;;-2.50;100.00;99676.66;5075537;28;20036;-76
2021/12/08 02:50:44;;;;;;;61.65;26.35;;;;;;;-2.32;100.00;99677.22;5075706;28;20447;-76
2021/12/08 02:53:17;;;;;;;58.72;25.60;;;;;;;-2.27;100.00;99691.94;5075523;28;20045;-76
2021/12/08 02:55:46;;;;;;;58.25;26.08;;;;;;;-2.30;100.00;99695.47;5075112;28;20531;-76
2021/12/08 02:58:15;;;;;;;58.78;25.77;;;;;;;-2.50;100.00;99694.94;5074210;28;20072;-76
2021/12/08 03:00:47;;;;;;;60.33;25.52;;;;;;;-2.52;100.00;99707.97;5075036;28;20572;-76
2021/12/08 03:03:15;;;;;;;62.72;26.30;;;;;;;-2.62;100.00;99720.31;5075633;28;20519;-76
2021/12/08 03:05:46;;;;;;;55.25;25.15;;;;;;;-2.62;100.00;99719.47;5075024;28;20113;-76
2021/12/08 03:08:18;;;;;;;59.20;25.35;;;;;;;-2.67;100.00;99726.53;5075403;28;20163;-79
2021/12/08 03:10:50;;;;;;;59.53;25.02;;;;;;;-2.74;100.00;99706.59;5075211;28;20048;-85
2021/12/08 03:13:19;;;;;;;57.20;25.67;;;;;;;-2.62;100.00;99716.84;5075236;28;20494;-86
2021/12/08 03:15:47;;;;;;;58.10;25.08;;;;;;;-2.47;100.00;99702.72;5074995;28;20036;-83
2021/12/08 03:18:17;;;;;;;55.88;24.88;;;;;;;-2.26;100.00;99706.72;5074853;28;20444;-83
2021/12/08 03:20:46;;;;;;;60.50;25.55;;;;;;;-2.30;100.00;99711.13;5074981;28;20175;-79
2021/12/08 03:23:23;;;;;;;61.42;26.27;;;;;;;-2.31;100.00;99707.66;5074947;28;20044;-78
2021/12/08 03:25:55;;;;;;;57.60;24.92;;;;;;;-2.40;100.00;99704.34;5074803;28;20036;-78
2021/12/08 03:28:29;;;;;;;60.97;25.58;;;;;;;-2.45;100.00;99707.00;5074701;28;20041;-83
2021/12/08 03:31:02;;;;;;;62.45;26.80;;;;;;;-2.65;100.00;99703.84;5074778;28;20044;-78
2021/12/08 03:33:30;;;;;;;59.95;25.60;;;;;;;-2.64;100.00;99706.44;5074584;28;20045;-77
2021/12/08 03:35:59;;;;;;;61.15;25.58;;;;;;;-2.63;100.00;99702.06;5074445;28;20072;-77
2021/12/08 03:38:30;;;;;;;61.25;26.40;;;;;;;-2.70;100.00;99703.94;5074225;28;20110;-77
2021/12/08 03:40:59;;;;;;;57.78;24.90;;;;;;;-2.79;100.00;99701.47;5074090;28;20045;-75
2021/12/08 03:43:28;;;;;;;60.50;26.40;;;;;;;-2.74;100.00;99699.63;5074280;28;20044;-77
2021/12/08 03:45:58;;;;;;;56.78;25.10;;;;;;;-2.71;100.00;99699.56;5074196;28;20072;-78
2021/12/08 03:48:29;;;;;;;64.82;26.80;;;;;;;-2.78;100.00;99695.34;5074018;28;20481;-76
2021/12/08 03:50:58;;;;;;;62.95;26.38;;;;;;;-2.75;100.00;99687.47;5074203;28;20037;-75
2021/12/08 03:53:27;;;;;;;61.88;25.70;;;;;;;-2.67;100.00;99687.34;5073775;28;20059;-76
2021/12/08 03:55:59;;;;;;;63.05;26.30;;;;;;;-2.73;100.00;99692.66;5074454;28;20044;-77
2021/12/08 03:58:27;;;;;;;60.85;25.45;;;;;;;-2.79;100.00;99688.41;5073907;28;20051;-78
2021/12/08 04:00:58;;;;;;;58.75;25.58;;;;;;;-2.91;100.00;99696.41;5074214;28;20123;-78
2021/12/08 04:03:31;;;;;;;62.47;26.55;;;;;;;-2.90;100.00;99704.19;5073665;28;20068;-81
2021/12/08 04:06:04;;;;;;;57.50;25.48;;;;;;;-3.02;100.00;99721.78;5073983;28;20402;-78
2021/12/08 04:08:41;;;;;;;60.28;25.38;;;;;;;-3.10;100.00;99718.41;5073802;28;20045;-78
2021/12/08 04:11:13;;;;;;;66.47;26.60;;;;;;;-3.05;100.00;99720.09;5074175;28;20120;-78
2021/12/08 04:13:46;;;;;;;60.25;25.65;;;;;;;-2.93;100.00;99716.44;5073537;28;20037;-78
2021/12/08 04:16:19;;;;;;;60.97;26.05;;;;;;;-2.69;100.00;99712.63;5074159;28;20059;-79
2021/12/08 04:18:48;;;;;;;58.42;25.42;;;;;;;-2.69;100.00;99717.84;5073729;28;20432;-79
2021/12/08 04:21:18;;;;;;;58.90;25.02;;;;;;;-2.84;100.00;99710.22;5073525;28;20054;-79
2021/12/08 04:23:48;;;;;;;58.35;25.75;;;;;;;-2.83;100.00;99710.22;5073264;28;20119;-79
2021/12/08 04:26:22;;;;;;;52.28;24.30;;;;;;;-3.02;100.00;99714.81;5073728;28;20044;-79
2021/12/08 04:28:51;;;;;;;60.00;25.88;;;;;;;-3.13;100.00;99724.53;5073352;28;20048;-80
2021/12/08 04:31:22;;;;;;;54.83;25.33;;;;;;;-3.09;100.00;99717.53;5073257;28;20486;-77
2021/12/08 04:33:56;;;;;;;55.97;25.27;;;;;;;-3.09;100.00;99726.22;5073332;28;20040;-77
2021/12/08 04:36:24;;;;;;;;;;;;;;;-2.99;100.00;99722.63;5074442;28;20126;-77
2021/12/08 04:38:57;;;;;;;59.33;24.40;;;;;;;-3.08;100.00;99717.53;5074016;28;19926;-76
2021/12/08 04:41:36;;;;;;;57.72;25.85;;;;;;;-3.17;100.00;99710.69;5074266;28;20115;-76
2021/12/08 04:44:13;;;;;;;63.63;25.60;;;;;;;-2.93;100.00;99714.69;5073989;28;20098;-76
2021/12/08 04:47:00;;;;;;;60.65;24.90;;;;;;;-2.92;100.00;99716.41;5073360;28;20094;-76
2021/12/08 04:49:55;;;;;;;57.95;25.02;;;;;;;-2.91;100.00;99706.84;5072120;28;20102;-78
2021/12/08 04:52:33;;;;;;;58.47;24.27;;;;;;;-2.94;100.00;99702.53;5073533;28;20049;-77
2021/12/08 05:01:09;;;;;;;57.97;24.08;;;;;;;-3.09;100.00;99717.53;5073249;28;20109;-77
2021/12/08 05:04:02;;;;;;;62.33;25.73;;;;;;;-3.30;100.00;99714.31;5072959;28;20496;-77
2021/12/08 05:06:42;;;;;;;57.27;25.53;;;;;;;-3.35;100.00;99713.53;5073343;28;20044;-80
2021/12/08 05:09:15;;;;;;;66.63;26.98;;;;;;;-3.29;100.00;99725.63;5071833;28;20059;-77
2021/12/08 05:11:49;;;;;;;57.03;24.80;;;;;;;-3.32;100.00;99723.06;5072953;28;20072;-77
2021/12/08 05:14:21;;;;;;;;;;;;;;;-3.30;100.00;99721.28;5073631;28;20051;-77
2021/12/08 05:16:52;;;;;;;55.20;23.65;;;;;;;-3.42;100.00;99719.69;5073024;28;19924;-78
2021/12/08 05:19:24;;;;;;;60.10;26.48;;;;;;;-3.34;100.00;99714.41;5072870;28;20481;-78
2021/12/08 05:21:55;;;;;;;57.63;24.00;;;;;;;-3.04;100.00;99714.00;5073045;28;20047;-78
2021/12/08 05:24:32;;;;;;;60.90;24.77;;;;;;;-3.07;100.00;99708.81;5073120;28;20105;-75
2021/12/08 05:27:05;;;;;;;62.70;26.17;;;;;;;-3.02;100.00;99707.00;5073157;28;20540;-76
2021/12/08 05:29:39;;;;;;;60.28;25.60;;;;;;;-3.21;100.00;99715.94;5072610;28;20036;-79
2021/12/08 05:32:08;;;;;;;60.13;26.63;;;;;;;-3.34;100.00;99711.78;5072965;28;20041;-78
2021/12/08 05:34:38;;;;;;;65.60;26.15;;;;;;;-3.56;100.00;99712.06;5072701;28;20044;-79
2021/12/08 05:37:11;;;;;;;61.75;27.33;;;;;;;-3.67;100.00;99713.88;5072691;28;20049;-78
2021/12/08 05:39:40;;;;;;;63.30;26.38;;;;;;;-3.71;100.00;99709.59;5073024;28;20075;-78
2021/12/08 05:42:20;;;;;;;60.90;27.35;;;;;;;-3.73;100.00;99703.56;5071738;28;20048;-78
2021/12/08 05:44:50;;;;;;;65.40;27.73;;;;;;;-3.69;100.00;99693.94;5072860;28;20570;-79
2021/12/08 05:47:22;;;;;;;64.93;27.30;;;;;;;-3.57;100.00;99689.47;5072832;28;20043;-78
2021/12/08 05:49:51;;;;;;;63.58;26.00;;;;;;;-3.53;100.00;99695.50;5073100;28;20048;-77
2021/12/08 05:52:20;;;;;;;58.17;26.85;;;;;;;-3.54;100.00;99688.56;5072868;28;20041;-75
2021/12/08 05:54:49;;;;;;;64.00;28.20;;;;;;;-3.54;100.00;99689.44;5072000;28;20503;-73
2021/12/08 05:57:23;;;;;;;66.30;27.80;;;;;;;-3.56;100.00;99700.75;5072658;28;20051;-70
2021/12/08 05:59:54;;;;;;;65.43;28.65;;;;;;;-3.67;100.00;99706.06;5072112;28;20407;-70
2021/12/08 06:02:27;;;;;;;67.40;28.55;;;;;;;-3.62;100.00;99706.03;5072886;28;20451;-70
2021/12/08 06:04:57;;;;;;;63.75;27.05;;;;;;;-3.54;100.00;99702.47;5076195;28;20040;-71
2021/12/08 06:07:26;;;;;;;61.30;28.00;;;;;;;-3.26;100.00;99712.56;5076269;28;20106;-75
2021/12/08 06:09:58;;;;;;;62.95;26.77;;;;;;;-3.16;100.00;99716.78;5075609;28;20884;-74
2021/12/08 06:12:27;;;;;;;58.65;27.48;;;;;;;-3.41;100.00;99720.56;5075976;28;20123;-68
2021/12/08 06:14:57;;;;;;;59.92;26.85;;;;;;;-3.46;100.00;99720.63;5074549;28;20157;-67
2021/12/08 06:17:29;;;;;;;64.65;27.05;;;;;;;-3.53;100.00;99725.03;5077103;28;20040;-70
2021/12/08 06:19:59;;;;;;;64.07;26.92;;;;;;;-3.54;100.00;99725.94;5075126;28;20044;-70
2021/12/08 06:22:31;;;;;;;65.50;27.83;;;;;;;-3.45;100.00;99719.75;5076001;28;20093;-70
2021/12/08 06:25:00;;;;;;;66.22;27.35;;;;;;;-3.31;100.00;99717.81;5075772;28;20048;-68
2021/12/08 06:27:28;;;;;;;66.18;28.38;;;;;;;-3.12;100.00;99728.88;5074976;28;20052;-67
2021/12/08 06:30:00;;;;;;;61.65;27.83;;;;;;;-3.00;100.00;99733.06;5076249;28;20492;-67
2021/12/08 06:32:29;;;;;;;66.70;27.27;;;;;;;-3.08;100.00;99735.81;5076128;28;20537;-66
2021/12/08 06:34:59;;;;;;;59.50;27.40;;;;;;;-3.06;100.00;99731.41;5075565;28;20045;-68
2021/12/08 06:37:31;;;;;;;63.47;29.23;;;;;;;-3.01;100.00;99724.38;5075494;28;20053;-68
2021/12/08 06:40:04;;;;;;;65.13;28.52;;;;;;;-3.00;100.00;99725.22;5076223;28;20494;-68
2021/12/08 06:42:38;;;;;;;63.85;28.67;;;;;;;-3.02;100.00;99724.41;5075719;28;20115;-67
2021/12/08 06:45:13;;;;;;;63.55;28.42;;;;;;;-3.10;100.00;99721.88;5076004;28;20122;-68
2021/12/08 06:47:44;;;;;;;65.70;28.88;;;;;;;-3.26;100.00;99715.16;5075552;28;20047;-69
2021/12/08 06:50:17;;;;;;;68.72;29.73;;;;;;;-3.34;100.00;99714.41;5075788;28;20086;-67
2021/12/08 06:52:45;;;;;;;74.57;31.35;;;;;;;-3.20;100.00;99722.88;5075524;28;20040;-69
2021/12/08 06:55:17;;;;;;;64.20;27.48;;;;;;;-3.18;100.00;99726.38;5075333;28;20044;-69
2021/12/08 06:57:51;;;;;;;65.78;27.98;;;;;;;-3.33;100.00;99719.59;5075367;28;20040;-69
2021/12/08 07:00:36;;;;;;;65.90;28.83;;;;;;;-3.35;100.00;99726.56;5075682;28;20076;-69
2021/12/08 07:03:21;;;;;;;66.38;28.83;;;;;;;-3.42;100.00;99724.06;5075711;28;20059;-69
2021/12/08 07:06:08;;;;;;;59.22;27.67;;;;;;;-3.41;100.00;99726.63;5075196;28;20045;-70
2021/12/08 07:08:42;;;;;;;68.32;28.45;;;;;;;-3.09;100.00;99738.41;5075147;28;20410;-67
2021/12/08 07:11:11;;;;;;;63.40;28.25;;;;;;;-2.97;100.00;99728.69;5075248;28;20371;-70
2021/12/08 07:13:40;;;;;;;62.45;28.33;;;;;;;-2.93;100.00;99719.91;5074912;28;20051;-70
2021/12/08 07:16:32;;;;;;;63.50;27.35;;;;;;;-2.83;100.00;99718.03;5074935;28;20120;-69
2021/12/08 07:19:10;;;;;;;65.13;28.13;;;;;;;-2.82;100.00;99717.16;5074972;28;20052;-70
2021/12/08 07:21:41;;;;;;;63.08;27.67;;;;;;;-2.74;100.00;99724.88;5075075;28;20052;-69
2021/12/08 07:24:17;;;;;;;66.85;28.90;;;;;;;-2.75;100.00;99718.78;5075238;28;20496;-70
2021/12/08 07:26:47;;;;;;;67.25;28.25;;;;;;;-2.76;100.00;99724.91;5074890;28;20398;-71
2021/12/08 07:29:18;;;;;;;72.65;30.90;;;;;;;-2.88;100.00;99717.25;5073907;28;20551;-70
2021/12/08 07:31:52;;;;;;;68.13;29.77;;;;;;;-2.97;100.00;99727.81;5074436;28;20480;-70
2021/12/08 07:34:22;;;;;;;74.30;31.10;;;;;;;-2.72;100.00;99718.75;5075005;28;20044;-71
2021/12/08 07:36:55;;;;;;;75.15;32.38;;;;;;;-2.58;100.00;99725.53;5074526;28;20037;-69
2021/12/08 07:39:27;;;;;;;71.50;31.38;;;;;;;-2.56;100.00;99716.78;5074718;28;20504;-71
2021/12/08 07:42:01;;;;;;;71.07;32.33;;;;;;;-2.63;100.00;99723.81;5074441;28;20047;-71
2021/12/08 07:44:29;;;;;;;;;;;;;;;-2.68;100.00;99730.03;5075984;28;20040;-70
2021/12/08 07:47:02;;;;;;;70.28;30.52;;;;;;;-2.68;100.00;99730.03;5074078;28;19920;-68
2021/12/08 07:49:32;;;;;;;75.38;32.97;;;;;;;-2.78;100.00;99724.06;5074645;28;20466;-67
2021/12/08 07:52:05;;;;;;;72.05;32.05;;;;;;;-2.89;100.00;99728.59;5074195;28;20477;-68
2021/12/08 07:54:34;;;;;;;79.68;33.20;;;;;;;-2.83;100.00;99730.22;5073959;28;20044;-69
2021/12/08 07:57:07;;;;;;;74.65;33.05;;;;;;;-2.54;100.00;99730.66;5074139;28;20040;-69
2021/12/08 07:59:39;;;;;;;74.72;31.92;;;;;;;-2.48;100.00;99733.19;5074057;28;20040;-67
2021/12/08 08:02:08;;;;;;;73.35;32.33;;;;;;;-2.44;100.00;99726.16;5074046;28;20048;-67
2021/12/08 08:04:41;;;;;;;73.30;33.45;;;;;;;-2.46;100.00;99731.41;5074323;28;20047;-67
2021/12/08 08:07:12;;;;;;;73.82;31.60;;;;;;;-2.41;100.00;99729.59;5074398;28;20094;-68
2021/12/08 08:09:43;;;;;;;72.07;30.23;;;;;;;-2.45;100.00;99734.88;5073690;28;20139;-68
2021/12/08 08:12:15;;;;;;;67.20;30.65;;;;;;;-2.63;100.00;99730.78;5073632;28;20036;-67
2021/12/08 08:14:50;;;;;;;72.90;31.55;;;;;;;-2.63;100.00;99731.66;5074177;28;20048;-68
2021/12/08 08:17:25;;;;;;;72.85;30.55;;;;;;;-2.67;100.00;99737.81;5074088;28;20051;-68
2021/12/08 08:19:53;;;;;;;68.10;30.17;;;;;;;-2.56;100.00;99736.81;5073846;28;20040;-68
2021/12/08 08:22:25;;;;;;;68.68;30.73;;;;;;;-2.47;100.00;99734.03;5074385;28;20131;-67
2021/12/08 08:24:58;;;;;;;74.18;30.05;;;;;;;-2.50;100.00;99732.34;5073714;28;20098;-68
2021/12/08 08:27:31;;;;;;;70.88;31.40;;;;;;;-2.45;100.00;99737.50;5073498;28;20062;-68
2021/12/08 08:30:00;;;;;;;71.80;32.22;;;;;;;-2.39;100.00;99733.03;5073320;28;20463;-67
2021/12/08 08:32:34;;;;;;;70.97;32.25;;;;;;;-2.37;100.00;99730.41;5073730;28;20045;-67
2021/12/08 08:35:10;;;;;;;73.13;32.38;;;;;;;-2.35;100.00;99744.28;5071922;28;20044;-67
2021/12/08 08:37:39;;;;;;;74.32;32.13;;;;;;;-2.21;100.00;99746.69;5073413;28;20052;-67
2021/12/08 08:40:16;;;;;;;73.15;31.30;;;;;;;-2.18;100.00;99744.88;5073304;28;20159;-68
2021/12/08 08:42:46;;;;;;;73.80;31.92;;;;;;;-2.13;100.00;99744.78;5073523;28;20052;-68
2021/12/08 08:45:18;;;;;;;73.65;33.67;;;;;;;-2.11;100.00;99737.81;5074103;28;20135;-69
2021/12/08 08:47:53;;;;;;;86.07;35.42;;;;;;;-1.93;100.00;99750.56;5073367;28;20047;-68
2021/12/08 08:50:25;;;;;;;82.60;34.63;;;;;;;-1.87;100.00;99744.34;5073666;28;20047;-69
2021/12/08 08:52:56;;;;;;;78.68;33.53;;;;;;;-1.72;100.00;99741.47;5073171;28;20097;-68
2021/12/08 08:55:46;;;;;;;79.15;33.78;;;;;;;-1.83;100.00;99749.53;5073454;28;20037;-69
2021/12/08 08:58:15;;;;;;;67.88;32.28;;;;;;;-1.83;100.00;99744.28;5073535;28;20049;-69
2021/12/08 09:00:48;;;;;;;79.82;34.33;;;;;;;-1.86;100.00;99741.72;5073319;28;20066;-68
2021/12/08 09:03:21;;;;;;;73.22;33.08;;;;;;;-1.86;100.00;99746.94;5073571;28;20055;-68
2021/12/08 09:05:53;;;;;;;67.82;31.20;;;;;;;-1.82;100.00;99735.56;5072923;28;20075;-74
2021/12/08 09:08:25;;;;;;;72.13;30.58;;;;;;;-1.80;100.00;99739.00;5073109;28;20040;-69
2021/12/08 09:10:56;;;;;;;68.18;31.65;;;;;;;-1.76;100.00;99724.09;5073067;28;20044;-69
2021/12/08 09:13:30;;;;;;;71.80;30.83;;;;;;;-1.59;100.00;99723.78;5072940;28;20036;-69
2021/12/08 09:16:07;;;;;;;69.43;32.05;;;;;;;-1.60;100.00;99719.47;5073025;28;20098;-69
2021/12/08 09:18:48;;;;;;;67.45;30.58;;;;;;;-1.54;100.00;99724.56;5072893;28;20051;-69
2021/12/08 09:21:21;;;;;;;66.80;28.83;;;;;;;-1.50;100.00;99718.38;5073193;28;20040;-69
2021/12/08 09:23:55;;;;;;;67.88;28.27;;;;;;;-1.48;100.00;99724.44;5072164;28;20139;-69
2021/12/08 09:26:27;;;;;;;63.88;29.65;;;;;;;-1.42;100.00;99707.78;5073174;28;20045;-69
2021/12/08 09:29:00;;;;;;;75.55;32.60;;;;;;;-1.30;100.00;99712.75;5072960;28;20094;-68
2021/12/08 09:31:34;;;;;;;72.07;30.30;;;;;;;-1.14;100.00;99705.44;5072763;28;20040;-68
2021/12/08 09:34:08;;;;;;;67.72;31.35;;;;;;;-1.15;100.00;99704.59;5072626;28;20040;-69
2021/12/08 09:36:42;;;;;;;76.40;33.35;;;;;;;-1.08;100.00;99697.44;5072992;28;20095;-68
2021/12/08 09:39:14;;;;;;;73.85;35.13;;;;;;;-0.97;100.00;99698.06;5075954;28;20060;-69
2021/12/08 09:41:46;;;;;;;79.78;36.45;;;;;;;-0.99;100.00;99694.63;5077124;28;20044;-68
2021/12/08 09:44:17;;;;;;;79.50;37.28;;;;;;;-0.84;100.00;99691.69;5076598;28;20055;-69
2021/12/08 09:46:49;;;;;;;84.55;38.15;;;;;;;-0.68;100.00;99686.94;5076715;28;20044;-69
2021/12/08 09:49:23;;;;;;;83.45;38.15;;;;;;;-0.69;100.00;99686.06;5076599;28;20123;-69
2021/12/08 09:51:52;;;;;;;87.65;37.80;;;;;;;-0.56;100.00;99684.03;5076884;28;20091;-69
2021/12/08 09:54:21;;;;;;;74.25;34.53;;;;;;;-0.32;100.00;99685.19;5076854;28;20452;-69
2021/12/08 09:56:52;;;;;;;71.90;32.55;;;;;;;-0.36;100.00;99679.16;5109574;28;20448;-68
2021/12/08 09:59:22;;;;;;;71.70;34.03;;;;;;;-0.38;100.00;99682.75;5076404;28;20501;-68
2021/12/08 10:01:52;;;;;;;72.55;33.30;;;;;;;-0.36;100.00;99683.56;5076649;28;20055;-69
2021/12/08 10:04:21;;;;;;;75.22;33.95;;;;;;;-0.21;100.00;99679.66;5076752;28;20044;-68
2021/12/08 10:06:50;;;;;;;68.30;32.05;;;;;;;-0.31;100.00;99681.66;5076460;28;20478;-68
2021/12/08 10:09:20;;;;;;;66.97;32.00;;;;;;;-0.28;100.00;99671.13;5076298;28;20044;-68
2021/12/08 10:11:52;;;;;;;68.35;30.48;;;;;;;-0.10;100.00;99665.38;5076359;28;20079;-68
2021/12/08 10:14:21;;;;;;;66.75;29.70;;;;;;;-0.32;100.00;99670.31;5076369;28;20059;-69
2021/12/08 10:16:54;;;;;;;68.78;30.98;;;;;;;-0.34;100.00;99666.88;5076379;28;20037;-69
2021/12/08 10:19:24;;;;;;;68.95;31.25;;;;;;;-0.25;100.00;99660.56;5076186;28;20047;-69
2021/12/08 10:21:52;;;;;;;69.85;32.78;;;;;;;-0.21;100.00;99662.19;5076227;28;20041;-69
2021/12/08 10:24:23;;;;;;;65.47;32.00;;;;;;;-0.29;100.00;99653.66;5076229;28;20140;-69
2021/12/08 10:26:54;;;;;;;67.10;32.20;;;;;;;-0.16;100.00;99655.06;5076241;28;20090;-69
2021/12/08 10:29:26;;;;;;;64.93;30.10;;;;;;;-0.13;100.00;99644.50;5076328;28;20037;-69
2021/12/08 10:31:56;;;;;;;66.22;31.27;;;;;;;0.09;100.00;99643.91;5076108;28;20440;-69
2021/12/08 10:34:34;;;;;;;63.15;31.02;;;;;;;0.02;100.00;99643.25;5075987;28;20055;-69
2021/12/08 10:37:07;;;;;;;65.70;30.33;;;;;;;0.02;100.00;99637.13;5075851;28;20046;-69
2021/12/08 10:39:38;;;;;;;67.97;30.85;;;;;;;0.18;100.00;99638.41;5076192;28;20052;-69
2021/12/08 10:42:13;;;;;;;68.47;30.70;;;;;;;0.22;100.00;99646.19;5075448;28;20075;-69
2021/12/08 10:44:52;;;;;;;67.15;30.23;;;;;;;0.31;100.00;99633.72;5075879;28;20041;-69
2021/12/08 10:47:30;;;;;;;74.65;32.28;;;;;;;0.28;100.00;99639.88;5075749;28;20036;-69
2021/12/08 10:55:39;;;;;;;64.68;32.03;;;;;;;0.49;100.00;99633.19;5075779;28;20041;-69
2021/12/08 10:58:20;;;;;;;74.30;32.75;;;;;;;0.40;100.00;99633.44;5075791;28;20052;-69
2021/12/08 11:00:49;;;;;;;70.60;32.78;;;;;;;0.40;100.00;99623.81;5075279;28;20048;-67
2021/12/08 11:03:17;;;;;;;71.68;32.95;;;;;;;0.38;100.00;99619.50;5075054;28;20041;-69
2021/12/08 11:05:50;;;;;;;74.13;31.98;;;;;;;0.32;100.00;99619.69;5075164;28;20067;-69
2021/12/08 11:08:24;;;;;;;65.90;31.30;;;;;;;0.40;100.00;99613.31;5075290;28;20051;-67
2021/12/08 11:10:55;;;;;;;63.92;30.52;;;;;;;0.43;100.00;99607.97;5075493;28;20049;-68
2021/12/08 11:13:27;;;;;;;69.75;31.60;;;;;;;0.51;100.00;99605.13;5075302;28;20051;-69
2021/12/08 11:16:04;;;;;;;61.63;30.60;;;;;;;0.46;100.00;99602.63;5075337;28;20102;-69
2021/12/08 11:18:38;;;;;;;69.80;31.02;;;;;;;0.45;100.00;99600.91;5073771;28;20068;-68
2021/12/08 11:21:16;;;;;;;65.65;31.77;;;;;;;0.43;100.00;99596.63;5075030;28;20044;-68
2021/12/08 11:24:10;;;;;;;60.85;29.90;;;;;;;0.61;100.00;99593.44;5074847;28;20550;-69
2021/12/08 11:26:41;;;;;;;62.63;29.70;;;;;;;0.69;100.00;99591.47;5075105;28;20127;-68
2021/12/08 11:29:12;;;;;;;64.95;30.35;;;;;;;0.80;100.00;99591.13;5075497;28;20044;-69
2021/12/08 11:31:42;;;;;;;63.15;30.60;;;;;;;0.66;100.00;99582.81;5075012;28;20094;-68
2021/12/08 11:34:16;;;;;;;66.70;28.00;;;;;;;0.62;100.00;99586.44;5074284;28;20040;-69
2021/12/08 11:36:50;;;;;;;71.30;30.67;;;;;;;0.56;100.00;99584.84;5074897;28;20105;-67
2021/12/08 11:39:21;;;;;;;65.95;29.50;;;;;;;0.74;100.00;99584.28;5074419;28;20080;-69
2021/12/08 11:41:53;;;;;;;70.50;31.92;;;;;;;0.75;100.00;99595.66;5074218;28;20087;-68
2021/12/08 11:44:24;;;;;;;71.35;33.00;;;;;;;0.72;100.00;99587.88;5074544;28;20101;-67
2021/12/08 11:47:03;;;;;;;70.95;32.38;;;;;;;0.86;100.00;99583.03;5074689;28;20040;-68
2021/12/08 11:49:32;;;;;;;68.97;32.63;;;;;;;0.88;100.00;99580.41;5074590;28;20489;-68
2021/12/08 11:52:09;;;;;;;70.57;32.95;;;;;;;0.93;100.00;99576.69;5074222;28;20044;-69
2021/12/08 11:54:48;;;;;;;72.70;32.67;;;;;;;1.06;100.00;99575.41;5074526;28;20048;-68
2021/12/08 11:57:22;;;;;;;68.30;31.00;;;;;;;0.96;100.00;99580.97;5074166;28;20044;-68
2021/12/08 11:59:56;;;;;;;68.40;30.35;;;;;;;1.02;100.00;99583.44;5074270;28;20040;-68
2021/12/08 12:02:27;;;;;;;60.78;27.25;;;;;;;0.99;100.00;99571.25;5073822;28;20043;-68